Time;durP1;ratioP1;P1;durP2;ratioP2;P2;SDS_P1;SDS_P2;PMS_P1;PMS_P2;Temp;Humidity;BMP_temperature;BMP_pressure;BME280_temperature;BME280_humidity;BME280_pressure;Samples;Min_cycle;Max_cycle;Signal;HPM_P1;HPM_P2
2021/03/07 00:00:50;;;;;;;17.97;10.57;;;-2.40;99.90;;;;;;5056416;28;20661;-78
2021/03/07 00:03:16;;;;;;;19.67;10.40;;;-2.50;99.90;;;;;;5056504;28;20243;-78
2021/03/07 00:05:42;;;;;;;18.57;9.97;;;-2.50;99.90;;;;;;5074728;28;20410;-78
2021/03/07 00:08:07;;;;;;;15.70;9.53;;;-2.50;99.90;;;;;;5056309;28;20669;-78
2021/03/07 00:10:33;;;;;;;17.93;10.07;;;-2.50;99.90;;;;;;5074746;28;20180;-78
2021/03/07 00:12:59;;;;;;;17.70;10.23;;;-2.50;99.90;;;;;;5074750;28;20175;-78
2021/03/07 00:15:24;;;;;;;19.83;10.30;;;-2.50;99.90;;;;;;5056308;28;20247;-78
2021/03/07 00:17:51;;;;;;;15.90;9.63;;;-2.60;99.90;;;;;;5056946;28;20570;-77
2021/03/07 00:20:20;;;;;;;18.10;9.70;;;-2.50;99.90;;;;;;5074472;28;20549;-78
2021/03/07 00:22:47;;;;;;;25.07;14.23;;;-2.50;99.90;;;;;;5056308;28;20455;-77
2021/03/07 00:25:14;;;;;;;20.40;12.30;;;-2.50;99.90;;;;;;5056241;28;20412;-78
2021/03/07 00:27:40;;;;;;;19.47;12.00;;;-2.40;99.90;;;;;;5074568;28;20462;-78
2021/03/07 00:30:09;;;;;;;16.43;10.33;;;-2.40;99.90;;;;;;5074463;28;20418;-78
2021/03/07 00:32:35;;;;;;;17.70;11.00;;;-2.50;99.90;;;;;;5056322;28;20419;-78
2021/03/07 00:35:01;;;;;;;17.43;10.03;;;-2.60;99.90;;;;;;5056422;28;20496;-78
2021/03/07 00:37:27;;;;;;;19.63;10.10;;;-2.60;99.90;;;;;;5074211;28;20178;-77
2021/03/07 00:39:53;;;;;;;18.17;9.57;;;-2.60;99.90;;;;;;5074739;28;20407;-78
2021/03/07 00:42:18;;;;;;;20.70;11.60;;;-2.60;99.90;;;;;;5056995;28;20201;-78
2021/03/07 00:44:44;;;;;;;24.70;11.90;;;-2.60;99.90;;;;;;5075828;28;20222;-78
2021/03/07 00:47:15;;;;;;;21.73;11.50;;;-2.60;99.90;;;;;;5060526;28;20175;-78
2021/03/07 00:49:41;;;;;;;17.33;10.30;;;-2.60;99.90;;;;;;5077797;28;20158;-78
2021/03/07 00:52:07;;;;;;;17.73;9.77;;;-2.70;99.90;;;;;;5077914;28;20414;-78
2021/03/07 00:54:33;;;;;;;19.47;11.30;;;-2.70;99.90;;;;;;5059609;28;20448;-78
2021/03/07 00:56:59;;;;;;;16.97;9.53;;;-2.70;99.90;;;;;;5077730;28;20171;-78
2021/03/07 00:59:24;;;;;;;17.27;10.17;;;-2.70;99.90;;;;;;5077908;28;20173;-78
2021/03/07 01:01:50;;;;;;;16.60;10.43;;;-2.80;99.90;;;;;;5077470;28;20192;-78
2021/03/07 01:04:16;;;;;;;17.00;11.27;;;-2.80;99.90;;;;;;5077601;28;20189;-78
2021/03/07 01:06:42;;;;;;;16.30;10.50;;;-2.70;99.90;;;;;;5059653;28;20665;-78
2021/03/07 01:09:08;;;;;;;19.27;11.13;;;-2.80;99.90;;;;;;5077944;28;20222;-78
2021/03/07 01:11:34;;;;;;;18.37;10.87;;;-2.80;99.90;;;;;;5077515;28;20411;-78
2021/03/07 01:14:00;;;;;;;16.00;9.90;;;-2.80;99.90;;;;;;5077885;28;20193;-78
2021/03/07 01:16:26;;;;;;;16.30;9.90;;;-2.70;99.90;;;;;;5077668;28;20502;-77
2021/03/07 01:18:51;;;;;;;12.90;8.30;;;-2.80;99.90;;;;;;5059533;28;20580;-78
2021/03/07 01:21:17;;;;;;;16.43;9.87;;;-2.80;99.90;;;;;;5077210;28;20200;-78
2021/03/07 01:23:43;;;;;;;13.50;8.80;;;-2.90;99.90;;;;;;5077236;28;20200;-78
2021/03/07 01:26:09;;;;;;;15.60;9.40;;;-2.90;99.90;;;;;;5077239;28;20403;-78
2021/03/07 01:28:35;;;;;;;15.20;9.40;;;-3.00;99.90;;;;;;5058947;28;20177;-78
2021/03/07 01:31:00;;;;;;;14.23;8.97;;;-3.00;99.90;;;;;;5059027;28;20180;-78
2021/03/07 01:33:26;;;;;;;15.37;9.57;;;-2.90;99.90;;;;;;5059031;28;20727;-78
2021/03/07 01:35:52;;;;;;;17.10;9.77;;;-2.90;99.90;;;;;;5059172;28;20203;-78
2021/03/07 01:38:18;;;;;;;16.57;9.90;;;-2.80;99.90;;;;;;5077066;28;20180;-78
2021/03/07 01:40:51;;;;;;;16.40;9.13;;;-2.70;99.90;;;;;;5077168;28;20179;-78
2021/03/07 01:43:19;;;;;;;16.37;10.20;;;-2.80;99.90;;;;;;5077145;28;20264;-78
2021/03/07 01:45:44;;;;;;;17.17;10.43;;;-2.90;99.90;;;;;;5077183;28;20442;-78
2021/03/07 01:48:15;;;;;;;13.80;8.93;;;-2.90;99.90;;;;;;5076897;28;20400;-78
2021/03/07 01:50:44;;;;;;;17.70;8.97;;;-2.90;99.90;;;;;;5058865;28;20169;-78
2021/03/07 01:53:11;;;;;;;19.83;10.63;;;-3.00;99.90;;;;;;5058792;28;20486;-78
2021/03/07 01:55:38;;;;;;;17.17;9.67;;;-3.00;99.90;;;;;;5058514;28;20442;-78
2021/03/07 01:58:09;;;;;;;15.83;9.77;;;-3.10;99.90;;;;;;5076314;28;20406;-77
2021/03/07 02:00:35;;;;;;;18.73;9.57;;;-3.10;99.90;;;;;;5058541;28;20407;-78
2021/03/07 02:03:01;;;;;;;20.63;10.50;;;-3.10;99.90;;;;;;5076775;28;20893;-78
2021/03/07 02:05:27;;;;;;;18.47;10.30;;;-3.10;99.90;;;;;;5076773;28;20172;-78
2021/03/07 02:07:53;;;;;;;27.77;13.30;;;-3.10;99.90;;;;;;5076495;28;20188;-78
2021/03/07 02:10:29;;;;;;;91.07;39.30;;;-3.10;99.90;;;;;;5076818;28;20427;-78
2021/03/07 02:12:59;;;;;;;135.77;55.60;;;-3.10;99.90;;;;;;5077039;28;20425;-78
2021/03/07 02:15:27;;;;;;;40.20;20.73;;;-3.10;99.90;;;;;;5058901;28;20491;-78
2021/03/07 02:17:53;;;;;;;50.43;25.57;;;-3.10;99.90;;;;;;5058813;28;20415;-78
2021/03/07 02:20:20;;;;;;;37.77;20.67;;;-3.10;99.90;;;;;;5076427;28;20418;-78
2021/03/07 02:23:19;;;;;;;20.70;12.13;;;-3.10;99.90;;;;;;5058591;28;20820;-78
2021/03/07 02:25:45;;;;;;;17.30;9.67;;;-3.10;99.90;;;;;;5076199;28;20860;-78
2021/03/07 02:28:11;;;;;;;17.60;10.10;;;-3.10;99.90;;;;;;5076429;28;20925;-78
2021/03/07 02:30:37;;;;;;;17.00;9.57;;;-3.20;99.90;;;;;;5076578;28;20408;-78
2021/03/07 02:33:08;;;;;;;20.50;11.63;;;-3.10;99.90;;;;;;5076493;28;20601;-78
2021/03/07 02:35:37;;;;;;;20.50;11.67;;;-3.20;99.90;;;;;;5076007;28;20157;-78
2021/03/07 02:38:05;;;;;;;20.17;11.07;;;-3.10;99.90;;;;;;5058266;28;20967;-78
2021/03/07 02:40:33;;;;;;;17.30;9.70;;;-3.10;99.90;;;;;;5076169;28;20407;-78
2021/03/07 02:43:00;;;;;;;16.97;9.23;;;-3.20;99.90;;;;;;5076120;28;20454;-78
2021/03/07 02:45:26;;;;;;;15.60;9.10;;;-3.30;99.90;;;;;;5076199;28;20469;-78
2021/03/07 02:47:54;;;;;;;14.50;8.90;;;-3.40;99.90;;;;;;5058306;28;20514;-78
2021/03/07 02:50:25;;;;;;;17.60;9.93;;;-3.30;99.90;;;;;;5076177;28;20403;-78
2021/03/07 02:52:57;;;;;;;15.73;9.03;;;-3.40;99.90;;;;;;5076200;28;20399;-78
2021/03/07 02:55:27;;;;;;;14.67;9.10;;;-3.30;99.90;;;;;;5057767;28;20465;-78
2021/03/07 02:57:54;;;;;;;16.03;9.07;;;-3.30;99.90;;;;;;5057707;28;20438;-77
2021/03/07 03:00:21;;;;;;;18.17;9.07;;;-3.30;99.90;;;;;;5075675;28;20419;-78
2021/03/07 03:02:48;;;;;;;17.20;10.33;;;-3.30;99.90;;;;;;5057387;28;20528;-78
2021/03/07 03:05:15;;;;;;;14.40;8.30;;;-3.30;99.90;;;;;;5075821;28;20978;-78
2021/03/07 03:07:43;;;;;;;16.40;8.83;;;-3.30;99.90;;;;;;5074823;28;20435;-78
2021/03/07 03:10:11;;;;;;;16.47;9.47;;;-3.30;99.90;;;;;;5075770;28;20413;-78
2021/03/07 03:12:41;;;;;;;17.47;9.73;;;-3.40;99.90;;;;;;5057698;28;20423;-78
2021/03/07 03:15:09;;;;;;;20.43;10.77;;;-3.30;99.90;;;;;;5057823;28;20524;-78
2021/03/07 03:17:38;;;;;;;18.73;9.47;;;-3.30;99.90;;;;;;5057515;28;20430;-78
2021/03/07 03:20:13;;;;;;;16.30;9.43;;;-3.20;99.90;;;;;;5057721;28;20450;-78
2021/03/07 03:22:39;;;;;;;14.23;9.20;;;-3.20;99.90;;;;;;5057408;28;20521;-78
2021/03/07 03:25:06;;;;;;;17.23;9.20;;;-3.30;99.90;;;;;;5075252;28;20819;-78
2021/03/07 03:27:34;;;;;;;16.47;10.17;;;-3.20;99.90;;;;;;5057295;28;20669;-78
2021/03/07 03:30:06;;;;;;;16.30;9.77;;;-3.20;99.90;;;;;;5057136;28;20415;-78
2021/03/07 03:32:32;;;;;;;16.27;9.10;;;-3.20;99.90;;;;;;5057134;28;20407;-78
2021/03/07 03:34:59;;;;;;;14.63;9.23;;;-3.20;99.90;;;;;;5074794;28;20522;-78
2021/03/07 03:37:25;;;;;;;19.03;10.40;;;-3.20;99.90;;;;;;5057005;28;20177;-78
2021/03/07 03:39:53;;;;;;;17.23;10.37;;;-3.20;99.90;;;;;;5057005;28;20512;-78
2021/03/07 03:42:19;;;;;;;16.90;10.20;;;-3.20;99.90;;;;;;5075495;28;20457;-78
2021/03/07 03:44:46;;;;;;;19.50;9.77;;;-3.20;99.90;;;;;;5075409;28;20431;-78
2021/03/07 03:47:15;;;;;;;17.17;9.03;;;-3.30;99.90;;;;;;5057118;28;20931;-78
2021/03/07 03:49:53;;;;;;;16.63;9.17;;;-3.30;99.90;;;;;;5057421;28;20418;-78
2021/03/07 03:52:21;;;;;;;14.57;9.17;;;-3.40;99.90;;;;;;5075738;28;20387;-78
2021/03/07 03:55:22;;;;;;;16.53;9.07;;;-3.40;99.90;;;;;;5057074;28;20435;-78
2021/03/07 03:57:52;;;;;;;14.27;8.40;;;-3.40;99.90;;;;;;5053606;28;20426;-78
2021/03/07 04:00:22;;;;;;;14.87;8.80;;;-3.50;99.90;;;;;;5074945;28;20892;-78
2021/03/07 04:02:48;;;;;;;15.90;9.50;;;-3.50;99.90;;;;;;5056854;28;20459;-78
2021/03/07 04:05:19;;;;;;;14.87;9.03;;;-3.50;99.90;;;;;;5075278;28;20407;-78
2021/03/07 04:07:48;;;;;;;15.50;9.13;;;-3.40;99.90;;;;;;5074895;28;20441;-78
2021/03/07 04:10:20;;;;;;;13.33;8.57;;;-3.40;99.90;;;;;;5075397;28;20468;-78
2021/03/07 04:12:48;;;;;;;17.57;9.13;;;-3.40;99.90;;;;;;5075344;28;20446;-78
2021/03/07 04:15:16;;;;;;;14.57;8.90;;;-3.50;99.90;;;;;;5075808;28;20486;-78
2021/03/07 04:17:44;;;;;;;16.53;9.80;;;-3.50;99.90;;;;;;5057541;28;20511;-78
2021/03/07 04:20:10;;;;;;;14.47;8.63;;;-3.50;99.90;;;;;;5078189;28;20423;-78
2021/03/07 04:22:36;;;;;;;17.33;10.13;;;-3.50;99.90;;;;;;5080221;28;20454;-78
2021/03/07 04:25:03;;;;;;;19.00;9.63;;;-3.50;99.90;;;;;;5061241;28;20457;-78
2021/03/07 04:27:30;;;;;;;17.53;11.10;;;-3.40;99.90;;;;;;5079249;28;20179;-78
2021/03/07 04:29:56;;;;;;;18.40;10.57;;;-3.30;99.90;;;;;;5079479;28;20892;-78
2021/03/07 04:32:22;;;;;;;17.73;9.80;;;-3.30;99.90;;;;;;5079957;28;20422;-78
2021/03/07 04:34:47;;;;;;;16.07;9.73;;;-3.20;99.90;;;;;;5079967;28;20196;-78
2021/03/07 04:37:13;;;;;;;17.37;10.43;;;-3.20;99.90;;;;;;5080072;28;20675;-78
2021/03/07 04:39:40;;;;;;;19.47;11.40;;;-3.20;99.90;;;;;;5062131;28;20181;-78
2021/03/07 04:42:05;;;;;;;20.07;11.43;;;-3.10;99.90;;;;;;5079851;28;20457;-78
2021/03/07 04:44:31;;;;;;;18.30;11.07;;;-3.10;99.90;;;;;;5078433;28;20446;-78
2021/03/07 04:46:58;;;;;;;16.63;10.30;;;-3.00;99.90;;;;;;5080116;28;20168;-78
2021/03/07 04:49:23;;;;;;;21.53;10.80;;;-2.90;99.90;;;;;;5062312;28;20954;-78
2021/03/07 04:51:50;;;;;;;18.60;11.13;;;-2.80;99.90;;;;;;5062334;28;20500;-78
2021/03/07 04:54:16;;;;;;;19.67;11.80;;;-2.70;99.90;;;;;;5061918;28;20211;-78
2021/03/07 04:56:42;;;;;;;17.10;10.27;;;-2.60;99.90;;;;;;5080241;28;20410;-78
2021/03/07 04:59:09;;;;;;;18.23;11.37;;;-2.60;99.90;;;;;;5061858;28;20279;-78
2021/03/07 05:01:36;;;;;;;18.67;10.30;;;-2.60;99.90;;;;;;5080192;28;20557;-78
2021/03/07 05:04:02;;;;;;;19.87;11.73;;;-2.50;99.90;;;;;;5080275;28;20435;-78
2021/03/07 05:06:28;;;;;;;18.53;11.13;;;-2.50;99.90;;;;;;5079601;28;20427;-78
2021/03/07 05:08:55;;;;;;;19.30;11.37;;;-2.50;99.90;;;;;;5079502;28;20411;-78
2021/03/07 05:11:21;;;;;;;16.90;11.20;;;-2.50;99.90;;;;;;5079466;28;20411;-78
2021/03/07 05:13:48;;;;;;;16.13;11.30;;;-2.40;99.90;;;;;;5061077;28;20447;-78
2021/03/07 05:16:17;;;;;;;18.30;10.77;;;-2.40;99.90;;;;;;5079539;28;20423;-78
2021/03/07 05:18:46;;;;;;;19.07;11.33;;;-2.40;99.90;;;;;;5061530;28;20438;-78
2021/03/07 05:21:11;;;;;;;18.97;11.73;;;-2.50;99.90;;;;;;5061622;28;20465;-78
2021/03/07 05:23:37;;;;;;;17.43;10.53;;;-2.50;99.90;;;;;;5079276;28;20521;-78
2021/03/07 05:26:04;;;;;;;18.10;11.77;;;-2.60;99.90;;;;;;5061162;28;20215;-78
2021/03/07 05:28:30;;;;;;;18.63;11.90;;;-2.50;99.90;;;;;;5078886;28;20177;-78
2021/03/07 05:30:55;;;;;;;19.57;11.87;;;-2.50;99.90;;;;;;5078616;28;20776;-78
2021/03/07 05:33:21;;;;;;;16.97;10.33;;;-2.50;99.90;;;;;;5079147;28;20202;-78
2021/03/07 05:35:48;;;;;;;18.47;10.37;;;-2.60;99.90;;;;;;5078942;28;20201;-78
2021/03/07 05:38:14;;;;;;;18.40;11.77;;;-2.70;99.90;;;;;;5078197;28;20175;-78
2021/03/07 05:40:40;;;;;;;22.47;10.50;;;-2.70;99.90;;;;;;5080060;28;20434;-78
2021/03/07 05:43:08;;;;;;;16.17;8.80;;;-2.80;99.90;;;;;;5080352;28;20482;-78
2021/03/07 05:45:34;;;;;;;18.47;9.67;;;-2.90;99.90;;;;;;5080739;28;20489;-78
2021/03/07 05:48:00;;;;;;;18.67;10.30;;;-2.90;99.90;;;;;;5081046;28;20409;-78
2021/03/07 05:50:27;;;;;;;15.10;9.30;;;-2.90;99.90;;;;;;5080767;28;20395;-78
2021/03/07 05:52:53;;;;;;;14.80;9.00;;;-3.00;99.90;;;;;;5080706;28;20176;-78
2021/03/07 05:55:21;;;;;;;13.60;7.83;;;-3.00;99.90;;;;;;5080837;28;20399;-78
2021/03/07 05:57:48;;;;;;;15.37;9.40;;;-3.00;99.90;;;;;;5062622;28;20913;-78
2021/03/07 06:00:15;;;;;;;18.13;10.03;;;-3.00;99.90;;;;;;5062412;28;20474;-78
2021/03/07 06:02:41;;;;;;;16.90;10.63;;;-3.00;99.90;;;;;;5079915;28;20998;-78
2021/03/07 06:05:09;;;;;;;16.60;9.50;;;-2.50;99.90;;;;;;5081237;28;20458;-78
2021/03/07 06:07:35;;;;;;;15.60;8.90;;;-3.00;99.90;;;;;;5080891;28;20427;-78
2021/03/07 06:10:30;;;;;;;16.63;9.13;;;-2.90;99.90;;;;;;5063543;28;20425;-78
2021/03/07 06:13:09;;;;;;;14.43;9.43;;;-3.00;99.90;;;;;;5067940;28;20191;-78
2021/03/07 06:15:35;;;;;;;16.00;8.93;;;-3.00;99.90;;;;;;5081716;28;20392;-78
2021/03/07 06:18:10;;;;;;;16.80;10.10;;;-3.00;99.90;;;;;;5081637;28;20395;-78
2021/03/07 06:20:36;;;;;;;14.10;8.53;;;-2.90;99.90;;;;;;5064100;28;20195;-78
2021/03/07 06:23:02;;;;;;;11.70;7.07;;;-2.90;99.90;;;;;;5063676;28;20980;-79
2021/03/07 06:25:29;;;;;;;12.20;7.23;;;-2.80;99.90;;;;;;5081857;28;20177;-78
2021/03/07 06:27:56;;;;;;;14.70;7.47;;;-2.80;99.90;;;;;;5081892;28;20395;-79
2021/03/07 06:30:31;;;;;;;11.77;7.73;;;-2.70;99.90;;;;;;5064726;28;20767;-79
2021/03/07 06:32:59;;;;;;;11.77;7.13;;;-2.60;99.90;;;;;;5082782;28;20473;-79
2021/03/07 06:35:28;;;;;;;12.90;7.70;;;-2.60;99.90;;;;;;5082488;28;20404;-78
2021/03/07 06:38:14;;;;;;;12.50;7.13;;;-2.50;99.90;;;;;;5082087;28;20758;-79
2021/03/07 06:40:42;;;;;;;15.60;7.60;;;-2.40;99.90;;;;;;5080587;28;20423;-78
2021/03/07 06:43:36;;;;;;;15.10;7.97;;;-2.30;99.90;;;;;;5063754;28;20486;-78
2021/03/07 06:46:01;;;;;;;14.33;7.67;;;-2.30;99.90;;;;;;5079785;28;20419;-78
2021/03/07 06:48:34;;;;;;;15.07;9.13;;;-2.30;99.90;;;;;;5064492;28;20421;-78
2021/03/07 06:51:00;;;;;;;16.63;8.73;;;-2.20;99.90;;;;;;5059770;28;20588;-78
2021/03/07 06:53:40;;;;;;;14.10;8.57;;;-2.10;99.90;;;;;;5077094;28;20485;-78
2021/03/07 06:56:06;;;;;;;16.20;9.43;;;-2.00;99.90;;;;;;5059563;28;20259;-78
2021/03/07 06:58:32;;;;;;;14.10;8.53;;;-1.80;99.90;;;;;;5078987;28;20404;-78
2021/03/07 07:00:59;;;;;;;16.37;9.10;;;-1.70;99.90;;;;;;5061948;28;20427;-78
2021/03/07 07:03:25;;;;;;;13.17;7.90;;;-1.70;99.90;;;;;;5080654;28;20438;-78
2021/03/07 07:05:53;;;;;;;14.63;8.93;;;-1.70;99.90;;;;;;5078859;28;20407;-78
2021/03/07 07:08:43;;;;;;;15.53;9.07;;;-1.50;99.90;;;;;;5078340;28;20267;-78
2021/03/07 07:11:09;;;;;;;14.60;8.33;;;-1.30;99.90;;;;;;5079100;28;20395;-79
2021/03/07 07:13:46;;;;;;;14.40;8.63;;;-1.20;99.90;;;;;;5078849;28;20434;-79
2021/03/07 07:16:13;;;;;;;16.70;9.30;;;-1.10;99.90;;;;;;5079611;28;20403;-78
2021/03/07 07:18:41;;;;;;;14.43;8.67;;;-1.00;99.90;;;;;;5061953;28;20485;-78
2021/03/07 07:21:09;;;;;;;15.77;9.10;;;-0.90;99.90;;;;;;5080362;28;20454;-79
2021/03/07 07:23:36;;;;;;;19.07;9.93;;;-0.80;99.90;;;;;;5080694;28;20436;-79
2021/03/07 07:26:03;;;;;;;16.20;9.67;;;-0.70;99.90;;;;;;5061903;28;20411;-78
2021/03/07 07:28:29;;;;;;;16.43;9.83;;;-0.60;99.90;;;;;;5079981;28;20403;-78
2021/03/07 07:31:04;;;;;;;17.47;9.17;;;-0.40;99.90;;;;;;5081394;28;20475;-78
2021/03/07 07:33:55;;;;;;;14.30;9.30;;;-0.20;99.90;;;;;;5083392;28;20418;-79
2021/03/07 07:36:28;;;;;;;14.37;9.27;;;-0.10;99.90;;;;;;5066538;28;20396;-78
2021/03/07 07:38:56;;;;;;;14.80;9.20;;;-0.10;99.90;;;;;;5066239;28;20407;-79
2021/03/07 07:41:41;;;;;;;18.03;10.90;;;-0.10;99.90;;;;;;5065568;28;20455;-79
2021/03/07 07:44:11;;;;;;;14.47;9.53;;;0.00;99.90;;;;;;5063968;28;20810;-78
2021/03/07 07:46:58;;;;;;;16.00;10.03;;;0.10;99.90;;;;;;5063669;28;20418;-79
2021/03/07 07:49:48;;;;;;;15.87;11.13;;;0.10;99.90;;;;;;5063742;28;20418;-79
2021/03/07 07:52:30;;;;;;;15.90;10.20;;;0.10;99.90;;;;;;5064579;28;20502;-79
2021/03/07 07:55:05;;;;;;;13.83;8.57;;;0.60;99.90;;;;;;5063581;28;20461;-79
2021/03/07 07:57:35;;;;;;;14.30;9.33;;;0.60;99.90;;;;;;5062417;28;20406;-79
2021/03/07 08:00:04;;;;;;;13.20;8.73;;;0.50;99.90;;;;;;5080540;28;20398;-78
2021/03/07 08:02:42;;;;;;;15.17;9.63;;;1.10;99.90;;;;;;5081670;28;20526;-79
2021/03/07 08:05:20;;;;;;;13.10;9.27;;;1.20;99.90;;;;;;5081768;28;20510;-79
2021/03/07 08:07:59;;;;;;;14.37;9.80;;;1.10;99.90;;;;;;5063838;28;20786;-79
2021/03/07 08:10:40;;;;;;;18.97;12.57;;;1.00;99.90;;;;;;5082497;28;20403;-79
2021/03/07 08:13:25;;;;;;;13.80;9.33;;;0.80;99.90;;;;;;5063909;28;20419;-79
2021/03/07 08:15:52;;;;;;;23.00;12.63;;;0.80;99.90;;;;;;5081882;28;20399;-79
2021/03/07 08:18:22;;;;;;;26.53;15.30;;;0.90;99.90;;;;;;5063760;28;20901;-79
2021/03/07 08:20:51;;;;;;;26.40;14.07;;;0.90;99.90;;;;;;5063555;28;20414;-78
2021/03/07 08:23:18;;;;;;;28.97;13.97;;;0.90;99.90;;;;;;5081539;28;20435;-79
2021/03/07 08:25:50;;;;;;;29.23;16.43;;;1.10;99.90;;;;;;5066281;28;20407;-78
2021/03/07 08:28:28;;;;;;;15.83;10.53;;;1.10;99.90;;;;;;5064198;28;20978;-79
2021/03/07 08:31:02;;;;;;;13.43;9.70;;;1.20;99.90;;;;;;5063945;28;20403;-79
2021/03/07 08:33:46;;;;;;;20.77;13.63;;;1.20;99.90;;;;;;5082120;28;20423;-79
2021/03/07 08:36:24;;;;;;;15.10;10.43;;;1.40;99.90;;;;;;5078719;28;20421;-79
2021/03/07 08:38:52;;;;;;;19.20;11.77;;;1.40;99.90;;;;;;5080537;28;20429;-79
2021/03/07 08:41:20;;;;;;;16.47;10.57;;;1.60;99.90;;;;;;5063549;28;20462;-79
2021/03/07 08:43:51;;;;;;;16.07;10.27;;;1.70;99.90;;;;;;5063437;28;20489;-79
2021/03/07 08:46:18;;;;;;;17.27;11.40;;;1.80;99.90;;;;;;5083694;28;20388;-79
2021/03/07 08:48:46;;;;;;;20.37;10.00;;;1.90;99.90;;;;;;5065424;28;20423;-79
2021/03/07 08:51:13;;;;;;;17.13;10.43;;;2.00;99.90;;;;;;5075920;28;20403;-80
2021/03/07 08:53:41;;;;;;;14.07;9.80;;;2.10;99.90;;;;;;5084062;28;20438;-79
2021/03/07 08:56:08;;;;;;;17.70;10.17;;;2.30;99.90;;;;;;5066671;28;20470;-79
2021/03/07 08:58:34;;;;;;;14.93;9.10;;;2.40;99.90;;;;;;5066178;28;20937;-79
2021/03/07 09:01:01;;;;;;;16.77;9.93;;;2.80;99.90;;;;;;5084391;28;20433;-80
2021/03/07 09:03:28;;;;;;;16.53;10.00;;;2.80;99.90;;;;;;5065343;28;20443;-79
2021/03/07 09:05:54;;;;;;;12.90;9.27;;;3.20;99.90;;;;;;5085570;28;20531;-79
2021/03/07 09:08:23;;;;;;;12.83;8.67;;;4.40;99.90;;;;;;5086956;28;20235;-79
2021/03/07 09:10:51;;;;;;;11.97;7.83;;;5.30;99.90;;;;;;5068459;28;20902;-79
2021/03/07 09:13:26;;;;;;;14.63;9.40;;;5.90;99.90;;;;;;5068558;28;20207;-79
2021/03/07 09:16:02;;;;;;;11.53;8.13;;;6.50;99.90;;;;;;5068796;28;20569;-79
2021/03/07 09:18:35;;;;;;;14.47;9.10;;;6.90;99.90;;;;;;5086631;28;20165;-80
2021/03/07 09:21:12;;;;;;;10.80;7.93;;;7.30;99.90;;;;;;5068662;28;20536;-79
2021/03/07 09:23:38;;;;;;;11.90;7.87;;;7.90;99.90;;;;;;5067427;28;20231;-79
2021/03/07 09:26:08;;;;;;;10.73;6.90;;;8.20;99.90;;;;;;5087057;28;20191;-79
2021/03/07 09:28:39;;;;;;;12.00;7.20;;;8.20;99.90;;;;;;5086005;28;20173;-79
2021/03/07 09:31:20;;;;;;;11.37;7.33;;;8.10;99.90;;;;;;5067137;28;20185;-80
2021/03/07 09:33:54;;;;;;;12.23;7.67;;;8.40;99.90;;;;;;5087159;28;20197;-80
2021/03/07 09:36:27;;;;;;;12.30;7.27;;;8.60;99.90;;;;;;5087056;28;20242;-79
2021/03/07 09:38:57;;;;;;;14.17;7.43;;;9.00;99.90;;;;;;5085977;28;20650;-80
2021/03/07 09:41:32;;;;;;;13.90;7.77;;;9.30;99.90;;;;;;5085945;28;20197;-80
2021/03/07 09:44:12;;;;;;;10.50;7.50;;;9.60;99.90;;;;;;5085985;28;20204;-79
2021/03/07 09:46:43;;;;;;;12.37;7.83;;;10.20;99.90;;;;;;5086819;28;20169;-79
2021/03/07 09:49:10;;;;;;;10.77;7.60;;;10.20;99.90;;;;;;5086257;28;20150;-80
2021/03/07 09:51:38;;;;;;;10.03;7.83;;;10.30;99.90;;;;;;5086058;28;20179;-79
2021/03/07 09:54:14;;;;;;;11.53;8.07;;;10.20;99.90;;;;;;5066388;28;20598;-80
2021/03/07 09:56:40;;;;;;;11.83;7.40;;;9.50;99.90;;;;;;5066644;28;20260;-79
2021/03/07 09:59:22;;;;;;;10.67;8.07;;;9.40;99.90;;;;;;5067032;28;20186;-79
2021/03/07 10:01:57;;;;;;;9.70;7.00;;;10.20;99.90;;;;;;5085944;28;20649;-79
2021/03/07 10:04:35;;;;;;;11.50;6.07;;;10.60;99.90;;;;;;5067580;28;20201;-79
2021/03/07 10:07:25;;;;;;;8.13;6.47;;;10.10;99.90;;;;;;5084297;28;20192;-79
2021/03/07 10:10:11;;;;;;;8.97;6.00;;;9.50;99.90;;;;;;5085175;28;20240;-79
2021/03/07 10:12:56;;;;;;;9.80;6.67;;;9.20;99.90;;;;;;5063943;28;20184;-78
2021/03/07 10:15:39;;;;;;;10.33;6.07;;;8.90;99.90;;;;;;5081978;28;20175;-78
2021/03/07 10:18:13;;;;;;;11.13;5.87;;;8.70;99.90;;;;;;5083115;28;20180;-78
2021/03/07 10:20:41;;;;;;;10.73;6.30;;;9.30;99.90;;;;;;5083901;28;20172;-78
2021/03/07 10:23:07;;;;;;;11.03;5.80;;;9.60;99.90;;;;;;5083799;28;20197;-78
2021/03/07 10:25:36;;;;;;;12.77;11.13;;;9.50;99.90;;;;;;5065336;28;20528;-79
2021/03/07 10:28:12;;;;;;;12.37;6.07;;;9.50;99.90;;;;;;5083481;28;20169;-78
2021/03/07 10:30:42;;;;;;;12.20;9.13;;;9.40;99.90;;;;;;5065442;28;20168;-78
2021/03/07 10:33:27;;;;;;;10.47;6.07;;;9.00;99.90;;;;;;5081522;28;20256;-78
2021/03/07 10:36:22;;;;;;;11.50;6.47;;;8.90;99.90;;;;;;5082774;28;20173;-79
2021/03/07 10:38:50;;;;;;;12.40;7.97;;;8.80;99.90;;;;;;5081455;28;20279;-78
2021/03/07 10:41:32;;;;;;;21.30;15.73;;;8.80;99.90;;;;;;5082993;28;20192;-78
2021/03/07 10:44:06;;;;;;;15.23;8.93;;;8.60;99.90;;;;;;5064542;28;20309;-78
2021/03/07 10:46:36;;;;;;;11.97;8.37;;;8.50;99.90;;;;;;5080437;28;20186;-78
2021/03/07 10:49:04;;;;;;;17.27;7.57;;;8.30;99.90;;;;;;5081393;28;20173;-78
2021/03/07 10:51:30;;;;;;;19.37;12.87;;;8.30;99.90;;;;;;5084941;28;20204;-80
2021/03/07 10:53:57;;;;;;;16.43;12.07;;;8.20;99.90;;;;;;5066172;28;20251;-80
2021/03/07 10:56:28;;;;;;;18.87;13.90;;;8.20;99.90;;;;;;5084807;28;20176;-80
2021/03/07 10:58:54;;;;;;;12.87;7.43;;;8.20;99.90;;;;;;5084799;28;20185;-79
2021/03/07 11:01:20;;;;;;;15.17;8.10;;;8.00;99.90;;;;;;5066684;28;20258;-79
2021/03/07 11:03:45;;;;;;;14.83;8.83;;;7.90;99.90;;;;;;5065415;28;20564;-79
2021/03/07 11:06:11;;;;;;;17.13;6.67;;;7.80;99.90;;;;;;5081508;28;20176;-79
2021/03/07 11:08:38;;;;;;;18.43;8.60;;;7.80;99.90;;;;;;5062198;28;20186;-79
2021/03/07 11:11:04;;;;;;;18.23;10.77;;;7.80;99.90;;;;;;5062230;28;20181;-79
2021/03/07 11:13:30;;;;;;;13.73;6.83;;;7.70;99.90;;;;;;5062976;28;20245;-79
2021/03/07 11:15:57;;;;;;;27.30;17.90;;;7.70;99.90;;;;;;5062530;28;20201;-79
2021/03/07 11:18:22;;;;;;;17.73;10.57;;;8.10;99.90;;;;;;5080317;28;20176;-79
2021/03/07 11:20:49;;;;;;;16.50;8.20;;;8.50;99.90;;;;;;5085032;28;20177;-80
2021/03/07 11:23:16;;;;;;;16.80;8.27;;;8.60;99.90;;;;;;5087527;28;20232;-79
2021/03/07 11:25:42;;;;;;;13.77;8.87;;;8.30;99.90;;;;;;5084152;28;20192;-79
2021/03/07 11:28:08;;;;;;;19.17;14.03;;;8.30;99.90;;;;;;5080120;28;20637;-78
2021/03/07 11:30:34;;;;;;;12.33;7.57;;;8.30;99.90;;;;;;5062417;28;20633;-78
2021/03/07 11:33:00;;;;;;;14.60;8.70;;;8.50;99.90;;;;;;5062217;28;20181;-79
2021/03/07 11:35:26;;;;;;;11.83;6.67;;;9.00;99.90;;;;;;5062469;28;20187;-79
2021/03/07 11:37:53;;;;;;;12.70;6.70;;;9.80;99.90;;;;;;5062339;28;20181;-79
2021/03/07 11:40:19;;;;;;;11.27;6.93;;;10.40;99.90;;;;;;5081373;28;20179;-79
2021/03/07 11:42:45;;;;;;;13.37;6.90;;;11.10;99.90;;;;;;5063937;28;20654;-80
2021/03/07 11:45:11;;;;;;;11.13;6.57;;;11.80;99.90;;;;;;5080499;28;20216;-79
2021/03/07 11:47:37;;;;;;;9.30;6.90;;;11.70;99.90;;;;;;5080299;28;20196;-80
2021/03/07 11:50:05;;;;;;;10.03;5.03;;;11.00;99.90;;;;;;5080283;28;20228;-80
2021/03/07 11:52:30;;;;;;;13.00;6.83;;;10.40;99.90;;;;;;5062987;28;20180;-78
2021/03/07 11:54:57;;;;;;;11.00;7.07;;;10.10;99.90;;;;;;5081311;28;20208;-79
2021/03/07 11:57:23;;;;;;;12.00;6.97;;;9.80;99.90;;;;;;5063870;28;20201;-79
2021/03/07 11:59:48;;;;;;;13.00;6.50;;;10.00;99.90;;;;;;5080896;28;20179;-80
2021/03/07 12:02:14;;;;;;;15.17;6.60;;;10.50;99.90;;;;;;5062326;28;20677;-80
2021/03/07 12:04:40;;;;;;;13.23;6.83;;;10.70;99.90;;;;;;5079329;28;20255;-79
2021/03/07 12:07:06;;;;;;;13.80;6.63;;;11.30;99.90;;;;;;5080724;28;20568;-78
2021/03/07 12:09:31;;;;;;;9.43;6.37;;;12.40;99.90;;;;;;5082350;28;20195;-79
2021/03/07 12:11:58;;;;;;;11.90;6.17;;;13.00;99.90;;;;;;5063491;28;20246;-78
2021/03/07 12:14:23;;;;;;;10.37;6.57;;;13.60;97.90;;;;;;5081933;28;20193;-79
2021/03/07 12:16:49;;;;;;;12.27;6.37;;;13.70;98.70;;;;;;5063141;28;20177;-78
2021/03/07 12:19:15;;;;;;;11.93;5.70;;;14.30;96.10;;;;;;5081062;28;20180;-78
2021/03/07 12:21:41;;;;;;;11.47;6.07;;;14.40;92.90;;;;;;5081638;28;20193;-78
2021/03/07 12:24:07;;;;;;;10.87;6.60;;;12.70;93.70;;;;;;5096930;28;20190;-78
2021/03/07 12:26:33;;;;;;;9.70;6.20;;;11.70;96.10;;;;;;5082307;28;20635;-78
2021/03/07 12:28:58;;;;;;;12.37;6.80;;;11.20;98.30;;;;;;5099862;28;20225;-78
2021/03/07 12:31:24;;;;;;;11.10;5.80;;;12.10;98.10;;;;;;5100558;28;20177;-78
2021/03/07 12:33:49;;;;;;;15.33;6.50;;;13.20;95.40;;;;;;5100745;28;20192;-79
2021/03/07 12:36:15;;;;;;;10.47;6.40;;;12.40;94.20;;;;;;5083912;28;20231;-78
2021/03/07 12:38:41;;;;;;;13.13;6.67;;;11.90;94.70;;;;;;5101898;28;20172;-78
2021/03/07 12:41:07;;;;;;;11.37;6.33;;;11.50;95.00;;;;;;5105055;28;20174;-78
2021/03/07 12:43:32;;;;;;;10.50;6.30;;;11.40;96.30;;;;;;5106491;28;20180;-78
2021/03/07 12:45:58;;;;;;;12.73;6.93;;;12.10;95.50;;;;;;5087321;28;20178;-78